createdAt,value
2023-04-25T00:00:53.719Z,94.15
2023-04-25T00:01:55.556Z,94.13
2023-04-25T00:02:58.743Z,94.33
2023-04-25T00:04:01.856Z,93.99
2023-04-25T00:05:06.344Z,94.16
2023-04-25T00:06:08.606Z,94.29
2023-04-25T00:07:12.788Z,94.08
2023-04-25T00:08:14.727Z,94.26
2023-04-25T00:09:17.591Z,94.37
2023-04-25T00:10:19.948Z,94.30
2023-04-25T00:11:23.003Z,94.19
2023-04-25T00:12:25.269Z,94.32
2023-04-25T00:13:28.265Z,94.18
2023-04-25T00:14:30.595Z,94.49
2023-04-25T00:15:33.411Z,94.30
2023-04-25T00:16:35.944Z,94.74
2023-04-25T00:17:39.767Z,94.47
2023-04-25T00:18:42.432Z,94.84
2023-04-25T00:19:47.203Z,94.49
2023-04-25T00:20:49.193Z,94.85
2023-04-25T00:21:51.949Z,94.65
2023-04-25T00:22:55.259Z,94.74
2023-04-25T00:23:58.606Z,94.72
2023-04-25T00:25:01.227Z,94.64
2023-04-25T00:26:04.743Z,94.94
2023-04-25T00:27:06.985Z,95.08
2023-04-25T00:28:10.428Z,94.77
2023-04-25T00:29:12.301Z,94.65
2023-04-25T00:30:16.007Z,94.43
2023-04-25T00:31:18.353Z,94.50
2023-04-25T00:32:21.234Z,94.70
2023-04-25T00:33:23.338Z,94.76
2023-04-25T00:34:26.270Z,95.02
2023-04-25T00:35:28.188Z,95.00
2023-04-25T00:36:31.912Z,94.78
2023-04-25T00:37:33.737Z,94.47
2023-04-25T00:38:39.168Z,94.40
2023-04-25T00:39:41.177Z,94.81
2023-04-25T00:40:44.600Z,94.74
2023-04-25T00:41:46.549Z,94.60
2023-04-25T00:42:49.759Z,94.89
2023-04-25T00:43:52.487Z,95.07
2023-04-25T00:44:55.441Z,95.07
2023-04-25T00:45:58.645Z,94.77
2023-04-25T00:47:02.652Z,94.89
2023-04-25T00:48:05.734Z,94.76
2023-04-25T00:49:09.725Z,95.43
2023-04-25T00:50:12.984Z,95.26
2023-04-25T00:51:18.320Z,95.35
2023-04-25T00:52:20.906Z,95.19
2023-04-25T00:53:24.232Z,95.38
2023-04-25T00:54:27.668Z,95.34
2023-04-25T00:55:30.504Z,95.50
2023-04-25T00:56:32.320Z,95.58
2023-04-25T00:57:35.397Z,95.97
2023-04-25T00:58:37.626Z,96.02
2023-04-25T00:59:40.444Z,96.00
2023-04-25T01:00:42.831Z,95.89
2023-04-25T01:01:45.836Z,95.96
2023-04-25T01:02:47.926Z,95.87
2023-04-25T01:03:52.015Z,95.64
2023-04-25T01:04:54.467Z,95.54
2023-04-25T01:05:57.562Z,95.42
2023-04-25T01:06:59.470Z,95.08
2023-04-25T01:08:02.351Z,95.38
2023-04-25T01:09:05.658Z,95.55
2023-04-25T01:10:10.855Z,95.68
2023-04-25T01:11:13.156Z,95.48
2023-04-25T01:12:16.407Z,95.84
2023-04-25T01:13:18.550Z,95.74
2023-04-25T01:14:21.838Z,96.21
2023-04-25T01:15:23.626Z,95.43
2023-04-25T01:16:27.134Z,95.62
2023-04-25T01:17:29.102Z,95.37
2023-04-25T01:18:31.971Z,95.60
2023-04-25T01:19:34.050Z,95.29
2023-04-25T01:20:37.297Z,95.39
2023-04-25T01:21:41.354Z,95.48
2023-04-25T01:22:44.376Z,95.75
2023-04-25T01:23:46.713Z,95.61
2023-04-25T01:24:49.562Z,95.75
2023-04-25T01:25:52.040Z,95.85
2023-04-25T01:26:57.289Z,96.04
2023-04-25T01:28:00.361Z,96.06
2023-04-25T01:29:04.546Z,95.92
2023-04-25T01:30:08.365Z,95.74
2023-04-25T01:31:12.639Z,95.90
2023-04-25T01:32:14.820Z,96.11
2023-04-25T01:33:18.212Z,95.77
2023-04-25T01:34:20.687Z,95.98
2023-04-25T01:35:24.872Z,95.71
2023-04-25T01:36:29.320Z,96.09
2023-04-25T01:37:33.476Z,95.64
2023-04-25T01:38:36.094Z,96.06
2023-04-25T01:39:39.133Z,96.33
2023-04-25T01:40:42.228Z,96.00
2023-04-25T01:41:45.273Z,95.90
2023-04-25T01:42:47.277Z,95.58
2023-04-25T01:43:50.373Z,95.47
2023-04-25T01:44:52.404Z,95.93
2023-04-25T01:45:55.711Z,96.00
2023-04-25T01:46:57.742Z,96.01
2023-04-25T01:48:00.574Z,95.83
2023-04-25T01:49:03.190Z,95.76
2023-04-25T01:50:08.470Z,95.85
2023-04-25T01:51:12.591Z,95.93
2023-04-25T01:52:15.848Z,95.82
2023-04-25T01:53:19.211Z,95.89
2023-04-25T01:54:23.246Z,95.97
2023-04-25T01:55:25.749Z,95.88
2023-04-25T01:56:39.853Z,96.45
2023-04-25T01:57:43.425Z,96.21
2023-04-25T01:58:47.849Z,95.96
2023-04-25T01:59:59.710Z,95.58
2023-04-25T02:01:17.460Z,95.98
2023-04-25T02:02:27.865Z,96.03
2023-04-25T02:03:31.437Z,96.14
2023-04-25T02:04:34.217Z,96.16
2023-04-25T02:05:38.547Z,96.18
2023-04-25T02:06:42.792Z,96.13
2023-04-25T02:07:45.862Z,96.43
2023-04-25T02:08:49.083Z,96.41
2023-04-25T02:09:52.896Z,96.43
2023-04-25T02:10:56.087Z,96.41
2023-04-25T02:12:01.052Z,96.73
2023-04-25T02:13:09.853Z,96.46
2023-04-25T02:14:26.493Z,96.35
2023-04-25T02:15:49.755Z,96.08
2023-04-25T02:16:53.990Z,96.21
2023-04-25T02:17:57.075Z,96.26
2023-04-25T02:18:59.021Z,96.21
2023-04-25T02:20:02.868Z,96.87
2023-04-25T02:21:04.852Z,96.65
2023-04-25T02:22:07.660Z,96.17
2023-04-25T02:23:09.715Z,96.04
2023-04-25T02:24:13.932Z,96.04
2023-04-25T02:25:16.957Z,96.02
2023-04-25T02:26:19.884Z,96.28
2023-04-25T02:27:21.687Z,96.34
2023-04-25T02:28:25.741Z,96.64
2023-04-25T02:29:27.567Z,96.44
2023-04-25T02:30:30.607Z,96.43
2023-04-25T02:31:32.920Z,96.48
2023-04-25T02:32:36.219Z,96.68
2023-04-25T02:33:38.531Z,96.44
2023-04-25T02:34:42.599Z,96.37
2023-04-25T02:35:44.457Z,96.54
2023-04-25T02:36:47.261Z,96.30
2023-04-25T02:37:53.350Z,96.72
2023-04-25T02:38:56.213Z,96.36
2023-04-25T02:39:59.378Z,96.41
2023-04-25T02:41:02.362Z,96.90
2023-04-25T02:42:04.256Z,96.58
2023-04-25T02:43:07.025Z,96.69
2023-04-25T02:44:08.954Z,96.85
2023-04-25T02:45:12.134Z,96.93
2023-04-25T02:46:14.033Z,96.96
2023-04-25T02:47:17.363Z,96.37
2023-04-25T02:48:19.277Z,96.29
2023-04-25T02:49:22.176Z,96.74
2023-04-25T02:50:24.233Z,96.92
2023-04-25T02:51:27.277Z,97.05
2023-04-25T02:52:29.126Z,96.80
2023-04-25T02:53:39.836Z,96.65
2023-04-25T02:54:42.037Z,96.77
2023-04-25T02:55:46.337Z,96.47
2023-04-25T02:56:48.383Z,96.79
2023-04-25T02:57:57.271Z,96.90
2023-04-25T02:59:23.182Z,97.26
2023-04-25T03:00:25.328Z,97.23
2023-04-25T03:01:28.183Z,97.31
2023-04-25T03:02:30.219Z,96.79
2023-04-25T03:03:33.211Z,96.72
2023-04-25T03:04:35.177Z,96.78
2023-04-25T03:05:38.544Z,96.69
2023-04-25T03:06:41.384Z,96.40
2023-04-25T03:07:45.070Z,96.54
2023-04-25T03:08:46.919Z,96.58
2023-04-25T03:09:49.777Z,96.80
2023-04-25T03:10:56.880Z,96.53
2023-04-25T03:12:01.186Z,97.19
2023-04-25T03:13:03.495Z,97.28
2023-04-25T03:14:06.310Z,97.06
2023-04-25T03:15:08.609Z,96.79
2023-04-25T03:16:12.555Z,96.52
2023-04-25T03:17:14.390Z,97.09
2023-04-25T03:18:17.182Z,96.96
2023-04-25T03:19:19.604Z,96.97
2023-04-25T03:20:22.541Z,97.19
2023-04-25T03:21:24.632Z,97.30
2023-04-25T03:22:28.172Z,97.33
2023-04-25T03:23:29.986Z,97.40
2023-04-25T03:24:32.800Z,97.21
2023-04-25T03:25:34.753Z,96.75
2023-04-25T03:26:39.053Z,96.87
2023-04-25T03:27:40.876Z,97.36
2023-04-25T03:28:44.090Z,97.05
2023-04-25T03:29:45.891Z,96.87
2023-04-25T03:30:48.782Z,96.94
2023-04-25T03:31:50.918Z,96.97
2023-04-25T03:32:53.722Z,96.75
2023-04-25T03:33:55.559Z,96.98
2023-04-25T03:35:00.176Z,97.27
2023-04-25T03:36:03.638Z,97.61
2023-04-25T03:37:06.671Z,97.40
2023-04-25T03:38:12.960Z,97.66
2023-04-25T03:39:16.949Z,97.63
2023-04-25T03:40:23.451Z,97.24
2023-04-25T03:41:55.909Z,97.49
2023-04-25T03:42:57.774Z,96.92
2023-04-25T03:44:00.905Z,96.74
2023-04-25T03:45:02.855Z,96.69
2023-04-25T03:46:06.561Z,97.21
2023-04-25T03:47:08.486Z,97.06
2023-04-25T03:48:11.374Z,96.95
2023-04-25T03:49:15.460Z,97.02
2023-04-25T03:50:34.131Z,97.36
2023-04-25T03:51:36.082Z,96.66
2023-04-25T03:52:38.875Z,96.72
2023-04-25T03:53:41.218Z,97.08
2023-04-25T03:55:05.640Z,96.92
2023-04-25T03:56:07.868Z,96.84
2023-04-25T03:57:14.457Z,96.89
2023-04-25T03:58:18.124Z,97.12
2023-04-25T03:59:21.216Z,97.08
2023-04-25T04:00:24.446Z,97.35
2023-04-25T04:01:28.067Z,97.39
2023-04-25T04:02:30.930Z,97.28
2023-04-25T04:03:34.236Z,97.29
2023-04-25T04:04:37.707Z,96.07
2023-04-25T04:05:41.668Z,96.39
2023-04-25T04:06:45.373Z,96.58
2023-04-25T04:07:52.117Z,96.94
2023-04-25T04:08:54.918Z,96.91
2023-04-25T04:09:57.135Z,96.67
2023-04-25T04:11:05.289Z,96.65
2023-04-25T04:12:08.225Z,96.68
2023-04-25T04:13:13.792Z,96.84
2023-04-25T04:14:15.676Z,96.90
2023-04-25T04:15:21.958Z,96.94
2023-04-25T04:16:24.218Z,96.95
2023-04-25T04:17:27.250Z,96.81
2023-04-25T04:18:29.283Z,97.14
2023-04-25T04:19:33.309Z,96.71
2023-04-25T04:20:42.038Z,97.27
2023-04-25T04:21:44.820Z,96.88
2023-04-25T04:22:47.521Z,97.46
2023-04-25T04:23:51.859Z,96.70
2023-04-25T04:24:55.253Z,96.83
2023-04-25T04:26:12.406Z,97.55
2023-04-25T04:27:27.336Z,98.07
2023-04-25T04:28:38.925Z,97.81
2023-04-25T04:30:02.754Z,97.57
2023-04-25T04:31:14.026Z,98.11
2023-04-25T04:32:17.328Z,98.18
2023-04-25T04:33:20.511Z,97.79
2023-04-25T04:34:28.005Z,98.20
2023-04-25T04:35:30.076Z,97.96
2023-04-25T04:36:33.030Z,97.65
2023-04-25T04:37:35.416Z,98.05
2023-04-25T04:38:40.716Z,97.93
2023-04-25T04:39:44.831Z,98.39
2023-04-25T04:41:08.064Z,98.30
2023-04-25T04:42:37.218Z,98.02
2023-04-25T04:44:04.199Z,98.21
2023-04-25T04:45:13.870Z,98.76
2023-04-25T04:46:47.919Z,99.11
2023-04-25T04:48:10.077Z,98.86
2023-04-25T04:49:23.589Z,98.47
2023-04-25T04:50:46.006Z,97.96
2023-04-25T04:52:14.657Z,98.54
2023-04-25T04:53:36.823Z,98.15
2023-04-25T04:55:06.758Z,98.26
2023-04-25T04:56:39.338Z,97.87
2023-04-25T04:58:00.696Z,97.79
2023-04-25T04:59:28.143Z,97.94
2023-04-25T05:00:53.760Z,98.21
2023-04-25T05:02:11.636Z,98.49
2023-04-25T05:03:33.000Z,98.52
2023-04-25T05:05:02.047Z,98.83
2023-04-25T05:06:22.493Z,98.69
2023-04-25T05:07:44.878Z,98.66
2023-04-25T05:09:07.270Z,98.52
2023-04-25T05:10:28.962Z,98.36
2023-04-25T05:11:54.213Z,98.46
2023-04-25T05:13:12.481Z,98.79
2023-04-25T05:14:32.217Z,98.95
2023-04-25T05:15:48.135Z,99.21
2023-04-25T05:17:09.529Z,99.00
2023-04-25T05:18:38.264Z,98.49
2023-04-25T05:19:47.081Z,98.65
2023-04-25T05:20:55.697Z,98.34
2023-04-25T05:22:36.956Z,98.57
2023-04-25T05:23:53.686Z,99.66
2023-04-25T05:25:15.677Z,99.14
2023-04-25T05:26:34.153Z,98.86
2023-04-25T05:27:52.079Z,98.70
2023-04-25T05:29:17.242Z,98.78
2023-04-25T05:30:39.723Z,98.77
2023-04-25T05:31:54.219Z,98.61
2023-04-25T05:32:57.264Z,98.45
2023-04-25T05:33:59.334Z,98.35
2023-04-25T05:35:12.647Z,98.40
2023-04-25T05:36:19.795Z,98.72
2023-04-25T05:37:23.275Z,98.54
2023-04-25T05:38:35.161Z,98.42
2023-04-25T05:39:56.137Z,98.52
2023-04-25T05:41:31.413Z,98.33
2023-04-25T05:42:49.067Z,97.74
2023-04-25T05:44:03.341Z,98.04
2023-04-25T05:45:29.455Z,97.79
2023-04-25T05:46:42.453Z,97.89
2023-04-25T05:47:57.143Z,97.59
2023-04-25T05:49:12.134Z,98.27
2023-04-25T05:50:34.007Z,98.01
2023-04-25T05:51:39.692Z,98.55
2023-04-25T05:52:49.852Z,98.16
2023-04-25T05:54:11.875Z,98.17
2023-04-25T05:55:14.522Z,98.06
2023-04-25T05:56:18.130Z,97.86
2023-04-25T05:57:23.541Z,97.48
2023-04-25T05:58:26.498Z,97.80
2023-04-25T05:59:29.530Z,98.03
2023-04-25T06:00:32.990Z,97.51
2023-04-25T06:01:34.928Z,96.87
2023-04-25T06:02:39.485Z,97.20
2023-04-25T06:03:44.113Z,97.45
2023-04-25T06:04:47.302Z,98.03
2023-04-25T06:05:49.338Z,98.45
2023-04-25T06:06:52.976Z,98.22
2023-04-25T06:07:54.783Z,98.55
2023-04-25T06:08:57.579Z,98.95
2023-04-25T06:09:59.497Z,98.63
2023-04-25T06:11:02.277Z,98.70
2023-04-25T06:12:04.605Z,98.45
2023-04-25T06:13:07.689Z,97.78
2023-04-25T06:14:11.349Z,97.76
2023-04-25T06:15:28.220Z,97.92
2023-04-25T06:16:31.379Z,98.41
2023-04-25T06:17:34.702Z,97.96
2023-04-25T06:18:38.236Z,98.01
2023-04-25T06:19:41.723Z,98.34
2023-04-25T06:20:43.985Z,98.27
2023-04-25T06:21:46.981Z,97.61
2023-04-25T06:22:48.973Z,97.95
2023-04-25T06:23:52.202Z,97.65
2023-04-25T06:24:59.834Z,98.46
2023-04-25T06:26:02.896Z,97.83
2023-04-25T06:27:06.267Z,97.80
2023-04-25T06:28:09.177Z,97.03
2023-04-25T06:29:11.659Z,96.21
2023-04-25T06:30:14.873Z,95.42
2023-04-25T06:31:16.819Z,95.34
2023-04-25T06:32:21.414Z,95.50
2023-04-25T06:33:27.658Z,96.20
2023-04-25T06:34:32.126Z,96.47
2023-04-25T06:35:36.346Z,96.88
2023-04-25T06:36:39.263Z,96.60
2023-04-25T06:37:45.502Z,96.66
2023-04-25T06:38:47.547Z,95.37
2023-04-25T06:39:50.477Z,95.36
2023-04-25T06:40:52.514Z,95.16
2023-04-25T06:41:55.903Z,95.00
2023-04-25T06:43:16.679Z,95.13
2023-04-25T06:44:31.789Z,95.84
2023-04-25T06:45:34.682Z,95.64
2023-04-25T06:46:38.860Z,94.96
2023-04-25T06:47:40.853Z,94.24
2023-04-25T06:48:44.508Z,93.91
2023-04-25T06:49:48.333Z,94.14
2023-04-25T08:38:40.171Z,82.30
2023-04-25T08:40:42.653Z,82.10
2023-04-25T08:42:49.081Z,79.98
2023-04-25T08:47:13.438Z,80.68
2023-04-25T08:51:35.476Z,82.02
2023-04-25T08:52:47.452Z,81.10
2023-04-25T08:54:30.929Z,81.68
2023-04-25T08:55:20.575Z,80.08
2023-04-25T08:56:26.170Z,80.87
2023-04-25T08:57:32.754Z,80.92
2023-04-25T08:58:38.016Z,79.57
2023-04-25T08:59:47.032Z,77.89
2023-04-25T09:00:53.360Z,77.44
2023-04-25T09:02:01.664Z,77.18
2023-04-25T09:03:07.876Z,77.65
2023-04-25T09:04:23.012Z,75.67
2023-04-25T09:05:33.300Z,76.83
2023-04-25T09:06:38.950Z,76.61
2023-04-25T09:07:46.409Z,77.36
2023-04-25T09:08:55.909Z,77.15
2023-04-25T09:10:01.083Z,76.85
2023-04-25T09:11:05.587Z,77.13
2023-04-25T09:12:09.068Z,76.66
2023-04-25T09:13:14.238Z,77.03
2023-04-25T09:14:45.166Z,77.17
2023-04-25T09:16:00.969Z,75.94
2023-04-25T09:17:25.796Z,75.62
2023-04-25T09:18:32.999Z,74.95
2023-04-25T09:19:42.421Z,76.18
2023-04-25T09:21:14.878Z,76.33
2023-04-25T09:22:23.996Z,76.46
2023-04-25T09:23:28.062Z,76.91
2023-04-25T09:24:34.306Z,76.75
2023-04-25T09:25:40.316Z,76.74
2023-04-25T09:26:45.768Z,74.79
2023-04-25T09:27:54.300Z,73.58
2023-04-25T09:29:08.629Z,73.63
2023-04-25T09:30:17.334Z,73.92
2023-04-25T09:31:39.395Z,75.03
2023-04-25T09:32:46.276Z,75.31
2023-04-25T09:33:51.842Z,74.21
2023-04-25T09:34:57.764Z,74.20
2023-04-25T09:36:08.427Z,74.73
2023-04-25T09:37:31.416Z,73.85
2023-04-25T09:38:52.832Z,74.04
2023-04-25T09:40:08.809Z,73.08
2023-04-25T09:41:25.727Z,73.26
2023-04-25T09:42:32.755Z,73.38
2023-04-25T09:43:34.646Z,74.59
2023-04-25T09:44:38.184Z,73.69
2023-04-25T09:45:46.721Z,73.36
2023-04-25T09:46:53.986Z,73.27
2023-04-25T09:48:07.108Z,72.21
2023-04-25T09:49:11.825Z,72.58
2023-04-25T09:50:33.405Z,73.47
2023-04-25T09:51:43.797Z,73.74
2023-04-25T09:52:46.692Z,73.65
2023-04-25T09:53:54.774Z,74.65
2023-04-25T09:55:11.184Z,73.06
2023-04-25T09:56:15.260Z,73.85
2023-04-25T09:57:19.587Z,73.27
2023-04-25T09:58:22.470Z,72.21
2023-04-25T09:59:25.612Z,73.12
2023-04-25T10:00:28.768Z,73.07
2023-04-25T10:01:31.815Z,72.20
2023-04-25T10:02:49.408Z,73.00
2023-04-25T10:04:13.695Z,74.54
2023-04-25T10:05:44.317Z,75.94
2023-04-25T10:06:48.209Z,75.10
2023-04-25T10:07:52.371Z,74.43
2023-04-25T10:08:56.711Z,74.09
2023-04-25T10:10:01.635Z,72.43
2023-04-25T10:11:07.868Z,71.70
2023-04-25T10:12:09.942Z,71.88
2023-04-25T10:13:15.288Z,71.95
2023-04-25T10:14:18.686Z,70.98
2023-04-25T10:15:21.699Z,72.00
2023-04-25T10:16:24.746Z,71.82
2023-04-25T10:17:28.826Z,70.44
2023-04-25T10:18:33.450Z,66.84
2023-04-25T10:19:36.449Z,66.90
2023-04-25T10:20:39.222Z,66.35
2023-04-25T10:21:47.749Z,64.91
2023-04-25T10:22:54.971Z,63.34
2023-04-25T10:23:56.816Z,63.64
2023-04-25T10:24:59.842Z,63.85
2023-04-25T10:26:02.731Z,63.31
2023-04-25T10:27:07.065Z,61.90
2023-04-25T10:28:09.820Z,62.52
2023-04-25T10:29:11.741Z,63.23
2023-04-25T10:30:17.071Z,62.23
2023-04-25T10:31:19.171Z,61.56
2023-04-25T10:32:22.311Z,60.36
2023-04-25T10:33:31.087Z,61.69
2023-04-25T10:34:41.972Z,61.56
2023-04-25T10:35:47.153Z,61.56
2023-04-25T10:36:52.104Z,59.71
2023-04-25T10:38:02.214Z,58.96
2023-04-25T10:39:09.707Z,58.77
2023-04-25T10:40:13.765Z,57.98
2023-04-25T10:41:16.563Z,58.26
2023-04-25T10:42:20.768Z,57.05
2023-04-25T10:43:37.198Z,59.39
2023-04-25T10:44:40.894Z,59.96
2023-04-25T10:45:52.586Z,57.62
2023-04-25T10:46:57.253Z,56.95
2023-04-25T10:48:00.063Z,57.27
2023-04-25T10:49:04.148Z,56.65
2023-04-25T10:50:07.124Z,55.92
2023-04-25T10:51:10.506Z,55.72
2023-04-25T10:52:14.472Z,55.14
2023-04-25T10:53:17.795Z,54.82
2023-04-25T10:54:21.091Z,54.88
2023-04-25T10:55:24.291Z,54.84
2023-04-25T10:56:27.842Z,54.72
2023-04-25T10:57:34.299Z,54.55
2023-04-25T10:58:36.084Z,54.94
2023-04-25T10:59:38.918Z,54.47
2023-04-25T11:00:53.262Z,53.90
2023-04-25T11:01:59.478Z,53.68
2023-04-25T11:03:02.598Z,53.66
2023-04-25T11:04:04.528Z,53.51
2023-04-25T11:05:08.414Z,53.74
2023-04-25T11:06:20.090Z,53.80
2023-04-25T11:07:28.211Z,54.00
2023-04-25T11:08:49.857Z,54.93
2023-04-25T11:09:53.387Z,55.02
2023-04-25T11:10:55.977Z,54.58
2023-04-25T11:12:00.047Z,54.34
2023-04-25T11:13:04.206Z,53.99
2023-04-25T11:14:07.356Z,53.78
2023-04-25T11:15:11.289Z,53.26
2023-04-25T11:16:13.619Z,53.45
2023-04-25T11:17:27.332Z,52.60
2023-04-25T11:18:30.217Z,52.01
2023-04-25T11:19:32.204Z,52.23
2023-04-25T11:20:34.920Z,52.21
2023-04-25T11:21:36.953Z,52.48
2023-04-25T11:22:41.544Z,52.76
2023-04-25T11:23:46.280Z,52.82
2023-04-25T11:24:49.039Z,52.54
2023-04-25T11:25:52.147Z,52.93
2023-04-25T11:26:53.968Z,52.59
2023-04-25T11:27:58.111Z,52.96
2023-04-25T11:29:02.732Z,52.89
2023-04-25T11:30:12.341Z,52.95
2023-04-25T11:31:15.509Z,52.86
2023-04-25T11:32:19.263Z,51.64
2023-04-25T11:33:25.974Z,52.24
2023-04-25T11:34:28.116Z,52.31
2023-04-25T11:35:30.909Z,52.17
2023-04-25T11:36:33.617Z,52.10
2023-04-25T11:37:36.447Z,52.21
2023-04-25T11:38:38.273Z,52.14
2023-04-25T11:39:45.166Z,51.94
2023-04-25T11:40:51.902Z,51.44
2023-04-25T11:41:53.909Z,51.62
2023-04-25T11:42:56.652Z,51.76
2023-04-25T11:43:58.836Z,51.65
2023-04-25T11:45:03.116Z,51.54
2023-04-25T11:46:08.262Z,51.40
2023-04-25T11:47:11.101Z,51.24
2023-04-25T11:48:12.983Z,51.05
2023-04-25T11:49:16.233Z,51.92
2023-04-25T11:50:18.972Z,52.14
2023-04-25T11:51:21.014Z,52.15
2023-04-25T11:52:23.806Z,51.71
2023-04-25T11:53:25.941Z,51.61
2023-04-25T11:54:28.704Z,51.69
2023-04-25T11:55:32.435Z,51.13
2023-04-25T11:56:34.385Z,51.27
2023-04-25T11:57:37.392Z,51.87
2023-04-25T11:58:58.645Z,51.64
2023-04-25T12:00:12.103Z,52.43
2023-04-25T12:01:29.892Z,51.79
2023-04-25T12:02:37.126Z,52.46
2023-04-25T12:03:47.940Z,51.95
2023-04-25T12:04:51.274Z,51.81
2023-04-25T12:05:53.577Z,52.35
2023-04-25T12:06:57.277Z,52.19
2023-04-25T12:07:59.195Z,52.39
2023-04-25T12:09:04.637Z,52.37
2023-04-25T12:10:09.240Z,51.73
2023-04-25T12:11:22.605Z,51.62
2023-04-25T12:12:29.639Z,51.29
2023-04-25T12:13:33.846Z,51.55
2023-04-25T12:14:36.796Z,52.07
2023-04-25T12:15:42.881Z,51.80
2023-04-25T12:16:47.341Z,51.68
2023-04-25T12:17:53.249Z,52.31
2023-04-25T12:18:55.043Z,52.07
2023-04-25T12:19:57.787Z,52.02
2023-04-25T12:21:01.146Z,51.83
2023-04-25T12:22:04.967Z,51.75
2023-04-25T12:23:08.742Z,51.88
2023-04-25T12:24:13.227Z,51.34
2023-04-25T12:25:35.822Z,51.87
2023-04-25T12:26:51.276Z,52.07
2023-04-25T12:27:54.050Z,51.54
2023-04-25T12:28:55.805Z,51.66
2023-04-25T12:29:59.406Z,51.54
2023-04-25T12:31:05.347Z,52.13
2023-04-25T12:32:07.354Z,52.22
2023-04-25T12:33:10.701Z,52.39
2023-04-25T12:34:12.878Z,52.38
2023-04-25T12:35:15.906Z,52.20
2023-04-25T12:36:18.072Z,52.60
2023-04-25T12:37:21.314Z,53.12
2023-04-25T12:38:27.613Z,52.68
2023-04-25T12:39:30.604Z,52.73
2023-04-25T12:40:32.501Z,52.62
2023-04-25T12:41:35.439Z,52.89
2023-04-25T12:42:38.193Z,53.00
2023-04-25T12:43:40.131Z,52.69
2023-04-25T12:44:43.031Z,53.57
2023-04-25T12:45:46.207Z,53.27
2023-04-25T12:46:51.247Z,52.83
2023-04-25T12:47:53.318Z,53.14
2023-04-25T12:49:05.306Z,53.03
2023-04-25T12:50:14.661Z,53.64
2023-04-25T12:51:16.518Z,52.66
2023-04-25T12:52:19.276Z,52.22
2023-04-25T12:53:22.545Z,52.96
2023-04-25T12:54:25.811Z,52.57
2023-04-25T12:55:27.665Z,52.73
2023-04-25T12:56:30.592Z,53.28
2023-04-25T12:57:33.443Z,53.51
2023-04-25T12:58:36.211Z,53.21
2023-04-25T12:59:39.315Z,53.34
2023-04-25T13:00:41.144Z,53.02
2023-04-25T13:01:45.324Z,52.92
2023-04-25T13:02:48.716Z,52.45
2023-04-25T13:03:51.879Z,52.67
2023-04-25T13:04:54.783Z,52.66
2023-04-25T13:05:56.734Z,53.23
2023-04-25T13:06:59.567Z,52.87
2023-04-25T13:08:02.384Z,52.23
2023-04-25T13:09:05.567Z,52.51
2023-04-25T13:10:09.380Z,52.19
2023-04-25T13:11:11.353Z,52.75
2023-04-25T13:12:14.178Z,52.88
2023-04-25T13:13:17.482Z,52.75
2023-04-25T13:14:20.246Z,51.95
2023-04-25T13:15:22.895Z,52.18
2023-04-25T13:16:25.963Z,52.07
2023-04-25T13:17:29.042Z,52.13
2023-04-25T13:18:32.489Z,52.81
2023-04-25T13:19:35.288Z,52.77
2023-04-25T13:20:37.076Z,52.99
2023-04-25T13:21:39.810Z,52.36
2023-04-25T13:22:43.012Z,52.14
2023-04-25T13:23:47.504Z,52.30
2023-04-25T13:24:49.259Z,52.16
2023-04-25T13:25:52.136Z,52.56
2023-04-25T13:26:54.853Z,52.15
2023-04-25T13:27:57.591Z,52.70
2023-04-25T13:29:04.647Z,51.83
2023-04-25T13:30:08.993Z,51.85
2023-04-25T13:31:11.772Z,52.18
2023-04-25T13:32:13.880Z,51.64
2023-04-25T13:33:16.718Z,52.00
2023-04-25T13:34:20.789Z,52.12
2023-04-25T13:35:22.674Z,52.10
2023-04-25T13:36:26.927Z,52.66
2023-04-25T13:37:28.873Z,52.75
2023-04-25T13:38:31.675Z,52.12
2023-04-25T13:39:33.485Z,52.36
2023-04-25T13:40:37.054Z,52.99
2023-04-25T13:41:38.965Z,53.56
2023-04-25T13:42:42.160Z,53.11
2023-04-25T13:43:44.884Z,52.94
2023-04-25T13:44:47.719Z,52.58
2023-04-25T13:45:49.610Z,52.69
2023-04-25T13:46:52.378Z,52.58
2023-04-25T13:47:55.264Z,52.62
2023-04-25T13:49:03.022Z,51.96
2023-04-25T13:50:14.640Z,51.62
2023-04-25T13:51:17.699Z,51.74
2023-04-25T13:52:20.575Z,51.63
2023-04-25T13:53:22.373Z,51.58
2023-04-25T13:54:25.104Z,51.70
2023-04-25T13:55:27.351Z,51.80
2023-04-25T13:56:30.105Z,51.50
2023-04-25T13:57:32.169Z,51.36
2023-04-25T13:58:34.998Z,51.51
2023-04-25T13:59:37.788Z,51.85
2023-04-25T14:00:40.720Z,51.11
2023-04-25T14:01:43.707Z,51.11
2023-04-25T14:02:46.696Z,50.87
2023-04-25T14:03:50.686Z,51.07
2023-04-25T14:04:52.891Z,51.24
2023-04-25T14:05:57.039Z,51.87
2023-04-25T14:07:00.645Z,51.58
2023-04-25T14:08:02.615Z,51.26
2023-04-25T14:09:05.714Z,51.44
2023-04-25T14:10:08.240Z,51.53
2023-04-25T14:11:11.085Z,51.00
2023-04-25T14:12:12.996Z,51.61
2023-04-25T14:13:16.057Z,51.48
2023-04-25T14:14:17.916Z,51.35
2023-04-25T14:15:21.137Z,51.30
2023-04-25T14:16:23.995Z,51.47
2023-04-25T14:17:26.949Z,51.98
2023-04-25T14:18:29.744Z,52.01
2023-04-25T14:19:31.628Z,52.04
2023-04-25T14:20:34.436Z,51.30
2023-04-25T14:21:37.569Z,51.96
2023-04-25T14:22:43.869Z,52.43
2023-04-25T14:23:47.801Z,51.94
2023-04-25T14:24:50.552Z,51.64
2023-04-25T14:25:52.300Z,51.69
2023-04-25T14:26:55.104Z,51.97
2023-04-25T14:27:56.883Z,52.02
2023-04-25T14:28:59.685Z,52.04
2023-04-25T14:30:01.545Z,52.21
2023-04-25T14:31:04.448Z,52.16
2023-04-25T14:32:06.465Z,51.97
2023-04-25T14:33:09.331Z,52.34
2023-04-25T14:34:12.287Z,52.07
2023-04-25T14:35:15.075Z,52.18
2023-04-25T14:36:17.096Z,52.11
2023-04-25T14:37:21.185Z,51.77
2023-04-25T14:38:24.239Z,51.47
2023-04-25T14:39:27.124Z,52.05
2023-04-25T14:40:29.906Z,52.11
2023-04-25T14:41:32.739Z,51.75
2023-04-25T14:42:35.156Z,51.57
2023-04-25T14:43:38.275Z,51.34
2023-04-25T14:44:40.077Z,51.87
2023-04-25T14:45:42.930Z,51.61
2023-04-25T14:46:45.878Z,51.42
2023-04-25T14:47:47.816Z,51.12
2023-04-25T14:48:50.766Z,51.29
2023-04-25T14:49:55.100Z,51.37
2023-04-25T14:50:58.257Z,51.39
2023-04-25T14:52:01.091Z,51.33
2023-04-25T14:53:05.244Z,51.33
2023-04-25T14:54:07.245Z,51.47
2023-04-25T14:55:10.757Z,51.57
2023-04-25T14:56:13.461Z,51.57
2023-04-25T14:57:16.261Z,51.66
2023-04-25T14:58:18.131Z,51.64
2023-04-25T14:59:21.406Z,51.72
2023-04-25T15:00:23.253Z,52.14
2023-04-25T15:01:26.433Z,51.72
2023-04-25T15:02:29.945Z,51.65
2023-04-25T15:03:32.968Z,51.55
2023-04-25T15:04:36.148Z,51.58
2023-04-25T15:05:38.037Z,52.17
2023-04-25T15:06:40.777Z,52.65
2023-04-25T15:07:42.974Z,53.08
2023-04-25T15:08:47.054Z,53.59
2023-04-25T15:09:49.042Z,53.07
2023-04-25T15:10:52.502Z,53.54
2023-04-25T15:11:55.240Z,52.69
2023-04-25T15:12:57.004Z,52.64
2023-04-25T15:13:59.773Z,52.69
2023-04-25T15:15:02.632Z,53.01
2023-04-25T15:16:05.917Z,52.62
2023-04-25T15:17:08.122Z,52.63
2023-04-25T15:18:11.178Z,51.92
2023-04-25T15:19:12.936Z,51.48
2023-04-25T15:20:16.054Z,51.18
2023-04-25T15:21:17.869Z,51.49
2023-04-25T15:22:20.640Z,50.78
2023-04-25T15:23:22.850Z,50.26
2023-04-25T15:24:27.306Z,50.34
2023-04-25T15:25:29.530Z,50.20
2023-04-25T15:26:32.430Z,50.34
2023-04-25T15:27:34.490Z,50.56
2023-04-25T15:28:37.315Z,50.64
2023-04-25T15:29:39.216Z,50.70
2023-04-25T15:30:41.926Z,50.65
2023-04-25T15:31:44.757Z,50.65
2023-04-25T15:32:47.489Z,50.40
2023-04-25T15:33:50.372Z,50.00
2023-04-25T15:34:52.319Z,50.38
2023-04-25T15:35:55.129Z,50.85
2023-04-25T15:36:58.583Z,51.15
2023-04-25T15:38:00.522Z,51.00
2023-04-25T15:39:03.812Z,50.93
2023-04-25T15:40:09.959Z,50.64
2023-04-25T15:41:12.707Z,50.43
2023-04-25T15:42:15.582Z,50.12
2023-04-25T15:43:17.381Z,49.76
2023-04-25T15:44:20.189Z,49.39
2023-04-25T15:45:25.703Z,49.42
2023-04-25T15:46:28.634Z,48.98
2023-04-25T15:47:30.484Z,49.04
2023-04-25T15:48:33.587Z,48.95
2023-04-25T15:49:35.371Z,49.25
2023-04-25T15:50:38.088Z,49.61
2023-04-25T15:51:40.904Z,49.92
2023-04-25T15:52:43.575Z,50.14
2023-04-25T15:53:47.130Z,50.45
2023-04-25T15:54:49.344Z,50.60
2023-04-25T15:55:53.466Z,50.49
2023-04-25T15:56:55.271Z,50.33
2023-04-25T15:57:58.052Z,50.70
2023-04-25T15:59:00.752Z,50.35
2023-04-25T16:00:07.983Z,50.15
2023-04-25T16:01:15.036Z,50.52
2023-04-25T16:02:17.638Z,50.62